createdAt,value
2023-03-28T00:01:22.707Z,1.80
2023-03-28T00:03:50.114Z,1.43
2023-03-28T00:06:19.151Z,1.30
2023-03-28T00:08:47.559Z,1.40
2023-03-28T00:11:19.166Z,1.37
2023-03-28T00:13:47.212Z,1.57
2023-03-28T00:16:15.016Z,1.40
2023-03-28T00:18:43.922Z,1.43
2023-03-28T00:21:20.117Z,1.40
2023-03-28T00:23:52.336Z,1.50
2023-03-28T00:26:20.626Z,1.60
2023-03-28T00:28:48.000Z,1.50
2023-03-28T00:31:15.490Z,1.80
2023-03-28T00:33:47.721Z,1.40
2023-03-28T00:36:18.457Z,1.50
2023-03-28T00:38:46.314Z,1.67
2023-03-28T00:41:16.035Z,1.57
2023-03-28T00:43:44.095Z,1.40
2023-03-28T00:46:14.120Z,1.57
2023-03-28T00:48:47.570Z,1.50
2023-03-28T00:51:15.249Z,2.23
2023-03-28T00:53:43.609Z,1.73
2023-03-28T00:56:12.821Z,2.10
2023-03-28T00:58:42.575Z,1.87
2023-03-28T01:01:12.309Z,1.47
2023-03-28T01:03:41.373Z,1.90
2023-03-28T01:06:10.527Z,1.83
2023-03-28T01:08:40.013Z,1.73
2023-03-28T01:11:07.969Z,1.50
2023-03-28T01:13:37.284Z,1.80
2023-03-28T01:16:05.349Z,1.50
2023-03-28T01:18:34.921Z,1.83
2023-03-28T01:21:17.180Z,1.93
2023-03-28T01:24:11.284Z,2.00
2023-03-28T01:26:52.823Z,1.50
2023-03-28T01:29:29.276Z,1.30
2023-03-28T01:32:06.493Z,1.67
2023-03-28T01:34:42.648Z,2.20
2023-03-28T01:37:17.198Z,1.57
2023-03-28T01:39:51.417Z,1.83
2023-03-28T01:42:24.363Z,1.63
2023-03-28T01:44:59.903Z,2.27
2023-03-28T01:47:30.344Z,1.80
2023-03-28T01:50:03.197Z,1.50
2023-03-28T01:52:36.447Z,1.57
2023-03-28T01:55:07.826Z,1.80
2023-03-28T01:57:40.251Z,1.77
2023-03-28T02:00:12.598Z,1.90
2023-03-28T02:02:42.825Z,1.80
2023-03-28T02:05:15.546Z,1.87
2023-03-28T02:07:45.339Z,1.77
2023-03-28T02:10:14.132Z,2.77
2023-03-28T02:12:43.652Z,2.13
2023-03-28T02:15:13.875Z,2.37
2023-03-28T02:17:42.538Z,1.90
2023-03-28T02:20:11.813Z,1.90
2023-03-28T02:22:40.543Z,2.37
2023-03-28T02:25:10.227Z,2.10
2023-03-28T02:27:39.395Z,1.90
2023-03-28T02:30:07.886Z,2.20
2023-03-28T02:32:35.780Z,2.10
2023-03-28T02:35:04.532Z,2.23
2023-03-28T02:37:37.493Z,2.70
2023-03-28T02:40:25.713Z,2.27
2023-03-28T02:43:05.274Z,2.10
2023-03-28T02:45:41.444Z,1.70
2023-03-28T02:48:15.435Z,2.07
2023-03-28T02:50:45.590Z,1.97
2023-03-28T02:53:15.483Z,2.60
2023-03-28T02:55:46.478Z,1.83
2023-03-28T02:58:21.185Z,1.80
2023-03-28T03:00:49.362Z,2.90
2023-03-28T03:03:17.207Z,1.57
2023-03-28T03:05:44.669Z,1.93
2023-03-28T03:08:12.683Z,1.77
2023-03-28T03:10:40.185Z,2.00
2023-03-28T03:13:07.538Z,1.90
2023-03-28T03:15:36.314Z,1.80
2023-03-28T03:18:04.432Z,1.93
2023-03-28T03:20:33.806Z,1.90
2023-03-28T03:23:01.695Z,2.20
2023-03-28T03:25:31.264Z,1.93
2023-03-28T03:27:58.632Z,2.23
2023-03-28T03:30:26.043Z,2.37
2023-03-28T03:32:55.948Z,1.80
2023-03-28T03:35:23.387Z,1.80
2023-03-28T03:37:50.774Z,2.10
2023-03-28T03:40:18.713Z,2.00
2023-03-28T03:42:46.219Z,1.83
2023-03-28T03:45:13.793Z,2.23
2023-03-28T03:47:41.190Z,2.17
2023-03-28T03:50:10.601Z,2.10
2023-03-28T03:52:38.176Z,2.43
2023-03-28T03:55:06.383Z,1.93
2023-03-28T03:57:33.869Z,1.93
2023-03-28T04:00:02.657Z,2.03
2023-03-28T04:02:30.192Z,1.83
2023-03-28T04:04:57.743Z,2.00
2023-03-28T04:07:26.496Z,2.10
2023-03-28T04:09:53.849Z,2.07
2023-03-28T04:12:21.208Z,2.30
2023-03-28T04:14:48.538Z,1.97
2023-03-28T04:17:16.123Z,1.70
2023-03-28T04:19:43.888Z,1.93
2023-03-28T04:22:12.950Z,2.27
2023-03-28T04:24:44.678Z,1.97
2023-03-28T04:27:12.228Z,1.60
2023-03-28T04:29:41.672Z,2.03
2023-03-28T04:32:12.703Z,2.20
2023-03-28T04:34:40.069Z,2.07
2023-03-28T04:37:09.122Z,2.83
2023-03-28T04:39:36.701Z,2.47
2023-03-28T04:42:05.919Z,1.90
2023-03-28T04:44:33.451Z,2.03
2023-03-28T04:47:01.791Z,2.10
2023-03-28T04:49:29.153Z,2.20
2023-03-28T04:51:56.558Z,2.10
2023-03-28T04:54:23.924Z,1.70
2023-03-28T04:56:51.408Z,2.07
2023-03-28T04:59:21.498Z,1.90
2023-03-28T05:01:50.020Z,2.07
2023-03-28T05:04:18.379Z,2.10
2023-03-28T05:06:46.279Z,2.30
2023-03-28T05:09:14.316Z,2.00
2023-03-28T05:11:41.926Z,1.90
2023-03-28T05:14:09.288Z,2.07
2023-03-28T05:16:39.180Z,1.70
2023-03-28T05:19:06.637Z,1.70
2023-03-28T05:21:34.040Z,1.67
2023-03-28T05:24:01.433Z,1.80
2023-03-28T05:26:28.886Z,1.90
2023-03-28T05:28:57.005Z,1.93
2023-03-28T05:31:26.027Z,2.10
2023-03-28T05:33:54.875Z,2.30
2023-03-28T05:36:23.306Z,2.33
2023-03-28T05:38:50.768Z,1.60
2023-03-28T05:41:18.156Z,1.97
2023-03-28T05:43:45.532Z,1.73
2023-03-28T05:46:12.937Z,1.83
2023-03-28T05:48:40.504Z,2.47
2023-03-28T05:51:09.262Z,2.40
2023-03-28T05:53:36.663Z,1.87
2023-03-28T05:56:04.312Z,1.90
2023-03-28T05:58:31.766Z,2.03
2023-03-28T06:01:00.485Z,2.20
2023-03-28T06:03:28.122Z,2.43
2023-03-28T06:05:55.534Z,1.90
2023-03-28T06:08:24.372Z,2.20
2023-03-28T06:10:51.735Z,2.37
2023-03-28T06:13:19.525Z,2.07
2023-03-28T06:15:46.911Z,2.30
2023-03-28T06:18:14.338Z,2.13
2023-03-28T06:20:41.737Z,2.83
2023-03-28T06:23:09.561Z,2.50
2023-03-28T06:25:38.285Z,2.40
2023-03-28T06:28:06.194Z,2.97
2023-03-28T06:30:33.725Z,1.90
2023-03-28T06:33:01.372Z,2.43
2023-03-28T06:35:29.140Z,2.23
2023-03-28T06:37:56.566Z,2.17
2023-03-28T06:40:23.951Z,2.50
2023-03-28T06:42:52.792Z,2.37
2023-03-28T06:45:21.093Z,2.47
2023-03-28T06:47:49.996Z,2.50
2023-03-28T06:50:17.377Z,2.33
2023-03-28T06:52:45.034Z,1.93
2023-03-28T06:55:12.520Z,2.50
2023-03-28T06:57:39.965Z,3.00
2023-03-28T07:00:09.650Z,2.40
2023-03-28T07:02:37.104Z,2.53
2023-03-28T07:05:04.662Z,2.60
2023-03-28T07:07:32.088Z,2.90
2023-03-28T07:09:59.522Z,2.50
2023-03-28T07:12:27.249Z,3.00
2023-03-28T07:14:54.635Z,2.73
2023-03-28T07:17:23.422Z,2.53
2023-03-28T07:19:51.214Z,3.00
2023-03-28T07:22:18.699Z,2.47
2023-03-28T07:24:46.165Z,2.80
2023-03-28T07:27:16.050Z,3.00
2023-03-28T07:29:44.227Z,2.30
2023-03-28T07:32:11.780Z,3.00
2023-03-28T07:34:40.796Z,3.20
2023-03-28T07:37:08.906Z,2.87
2023-03-28T07:39:39.792Z,2.40
2023-03-28T07:42:09.156Z,2.93
2023-03-28T07:44:36.888Z,3.10
2023-03-28T07:47:04.958Z,2.77
2023-03-28T07:49:32.412Z,3.10
2023-03-28T07:52:01.644Z,3.30
2023-03-28T07:54:29.167Z,2.70
2023-03-28T07:56:56.683Z,2.90
2023-03-28T07:59:24.117Z,3.40
2023-03-28T08:01:51.573Z,3.10
2023-03-28T08:04:19.187Z,3.40
2023-03-28T08:06:47.384Z,3.10
2023-03-28T08:09:16.881Z,3.10
2023-03-28T08:11:44.694Z,3.13
2023-03-28T08:14:12.981Z,3.20
2023-03-28T08:16:40.980Z,3.37
2023-03-28T08:19:11.637Z,3.77
2023-03-28T08:21:39.805Z,2.80
2023-03-28T08:24:08.152Z,3.17
2023-03-28T08:26:37.121Z,4.30
2023-03-28T08:29:05.382Z,2.60
2023-03-28T08:31:33.224Z,3.70
2023-03-28T08:34:00.890Z,3.10
2023-03-28T08:36:28.871Z,3.27
2023-03-28T08:39:00.600Z,2.97
2023-03-28T08:41:33.112Z,2.80
2023-03-28T08:44:10.439Z,3.27
2023-03-28T08:46:39.461Z,2.70
2023-03-28T08:49:10.786Z,3.30
2023-03-28T08:51:40.456Z,2.53
2023-03-28T08:54:12.854Z,2.90
2023-03-28T08:56:43.324Z,3.23
2023-03-28T08:59:13.980Z,2.90
2023-03-28T09:01:41.408Z,3.20
2023-03-28T09:04:09.054Z,2.97
2023-03-28T09:06:39.936Z,3.20
2023-03-28T09:09:17.911Z,2.83
2023-03-28T09:11:54.246Z,3.30
2023-03-28T09:14:31.468Z,2.83
2023-03-28T09:17:03.534Z,2.90
2023-03-28T09:19:47.897Z,2.87
2023-03-28T09:22:20.004Z,2.00
2023-03-28T09:24:55.374Z,2.40
2023-03-28T09:27:26.482Z,2.27
2023-03-28T09:29:56.784Z,2.07
2023-03-28T09:32:27.427Z,1.70
2023-03-28T09:34:54.870Z,2.43
2023-03-28T09:37:29.261Z,1.80
2023-03-28T09:39:58.198Z,2.03
2023-03-28T09:42:30.449Z,2.43
2023-03-28T09:45:04.789Z,2.33
2023-03-28T09:47:33.076Z,2.23
2023-03-28T09:50:11.904Z,2.60
2023-03-28T09:52:39.941Z,2.50
2023-03-28T09:55:15.741Z,2.00
2023-03-28T09:58:06.212Z,2.20
2023-03-28T10:00:40.718Z,2.20
2023-03-28T10:03:22.910Z,2.13
2023-03-28T10:05:51.580Z,2.10
2023-03-28T10:08:23.657Z,2.23
2023-03-28T10:11:00.124Z,2.37
2023-03-28T10:13:27.688Z,1.93
2023-03-28T10:15:59.539Z,1.77
2023-03-28T10:18:27.555Z,2.13
2023-03-28T10:20:55.338Z,1.77
2023-03-28T10:23:23.614Z,1.80
2023-03-28T10:25:52.165Z,1.70
2023-03-28T10:28:24.578Z,1.33
2023-03-28T10:30:53.880Z,1.50
2023-03-28T10:33:24.559Z,2.00
2023-03-28T10:35:56.996Z,2.03
2023-03-28T10:38:25.671Z,1.70
2023-03-28T10:40:54.270Z,1.90
2023-03-28T10:43:21.637Z,2.27
2023-03-28T10:45:51.035Z,1.60
2023-03-28T10:48:19.737Z,1.60
2023-03-28T10:50:49.822Z,1.83
2023-03-28T10:53:29.553Z,2.10
2023-03-28T10:56:02.848Z,1.50
2023-03-28T10:58:33.256Z,1.37
2023-03-28T11:01:03.796Z,1.40
2023-03-28T11:03:37.577Z,1.30
2023-03-28T11:06:10.302Z,1.57
2023-03-28T11:08:42.759Z,1.30
2023-03-28T11:11:15.860Z,1.53
2023-03-28T11:13:47.527Z,1.70
2023-03-28T11:16:20.342Z,1.50
2023-03-28T11:19:00.235Z,1.37
2023-03-28T11:21:33.051Z,1.27
2023-03-28T11:24:04.182Z,1.37
2023-03-28T11:26:39.948Z,1.40
2023-03-28T11:29:27.986Z,1.37
2023-03-28T11:32:06.798Z,1.50
2023-03-28T11:34:37.200Z,1.63
2023-03-28T11:37:07.901Z,1.73
2023-03-28T11:39:42.571Z,1.13
2023-03-28T11:42:12.100Z,1.47
2023-03-28T11:44:42.121Z,1.60
2023-03-28T11:47:12.876Z,1.17
2023-03-28T11:49:42.585Z,1.47
2023-03-28T11:52:15.314Z,1.20
2023-03-28T11:54:46.780Z,1.17
2023-03-28T11:57:17.133Z,1.20
2023-03-28T11:59:46.565Z,0.90
2023-03-28T12:02:19.554Z,1.30
2023-03-28T12:04:49.745Z,1.10
2023-03-28T12:07:19.768Z,1.17
2023-03-28T12:10:01.738Z,1.37
2023-03-28T12:12:30.841Z,1.20
2023-03-28T12:15:01.055Z,1.03
2023-03-28T12:17:29.860Z,1.30
2023-03-28T12:19:57.766Z,1.10
2023-03-28T12:22:30.326Z,1.47
2023-03-28T12:25:00.333Z,1.17
2023-03-28T12:27:36.752Z,1.47
2023-03-28T12:30:08.756Z,1.20
2023-03-28T12:32:43.351Z,1.20
2023-03-28T12:35:14.967Z,1.40
2023-03-28T12:37:51.536Z,1.40
2023-03-28T12:40:23.803Z,1.23
2023-03-28T12:42:52.164Z,1.42
2023-03-28T12:45:21.088Z,1.30
2023-03-28T12:47:51.662Z,1.60
2023-03-28T12:50:22.439Z,1.30
2023-03-28T12:52:53.460Z,1.63
2023-03-28T12:55:42.027Z,1.33
2023-03-28T12:58:14.287Z,1.30
2023-03-28T13:00:48.089Z,1.73
2023-03-28T13:03:19.642Z,1.60
2023-03-28T13:05:51.240Z,1.65
2023-03-28T13:08:24.519Z,1.60
2023-03-28T13:11:02.606Z,1.60
2023-03-28T13:13:34.803Z,1.42
2023-03-28T13:16:05.067Z,1.60
2023-03-28T13:18:33.900Z,1.70
2023-03-28T13:21:04.093Z,1.25
2023-03-28T13:23:35.621Z,1.15
2023-03-28T13:26:03.794Z,1.25
2023-03-28T13:28:32.707Z,1.23
2023-03-28T13:31:11.267Z,1.25
2023-03-28T13:33:40.099Z,1.20
2023-03-28T13:36:18.692Z,1.50
2023-03-28T13:38:50.455Z,1.50
2023-03-28T13:41:33.697Z,1.10
2023-03-28T13:44:02.621Z,1.45
2023-03-28T13:46:31.832Z,1.40
2023-03-28T13:49:02.510Z,1.30
2023-03-28T13:51:31.233Z,1.55
2023-03-28T13:54:00.063Z,1.50
2023-03-28T13:56:30.222Z,1.50
2023-03-28T13:58:58.683Z,1.48
2023-03-28T14:01:27.380Z,1.27
2023-03-28T14:03:55.800Z,1.45
2023-03-28T14:06:24.013Z,1.80
2023-03-28T14:08:52.400Z,1.10
2023-03-28T14:11:23.232Z,1.27
2023-03-28T14:13:52.049Z,1.40
2023-03-28T14:16:20.672Z,1.20
2023-03-28T14:18:50.063Z,1.45
2023-03-28T14:21:17.491Z,1.40
2023-03-28T14:23:55.599Z,1.73
2023-03-28T14:26:26.442Z,1.13
2023-03-28T14:28:54.318Z,1.30
2023-03-28T14:31:32.628Z,1.50
2023-03-28T14:34:00.157Z,1.40
2023-03-28T14:36:31.025Z,1.35
2023-03-28T14:39:13.379Z,1.23
2023-03-28T14:41:43.750Z,1.58
2023-03-28T14:44:13.427Z,1.17
2023-03-28T14:46:41.349Z,1.40
2023-03-28T14:49:10.232Z,1.33
2023-03-28T14:51:41.346Z,1.30
2023-03-28T14:54:12.563Z,1.23
2023-03-28T14:56:40.121Z,1.70
2023-03-28T14:59:10.842Z,1.58
2023-03-28T15:01:38.429Z,1.40
2023-03-28T15:04:07.362Z,1.70
2023-03-28T15:06:35.527Z,1.88
2023-03-28T15:09:09.678Z,1.38
2023-03-28T15:11:38.102Z,1.00
2023-03-28T15:14:06.963Z,1.58
2023-03-28T15:16:38.498Z,1.60
2023-03-28T15:19:07.652Z,1.30
2023-03-28T15:21:35.379Z,1.45
2023-03-28T15:24:04.423Z,1.02
2023-03-28T15:26:34.745Z,1.25
2023-03-28T15:29:02.659Z,1.65
2023-03-28T15:31:30.212Z,1.67
2023-03-28T15:33:59.426Z,1.27
2023-03-28T15:36:31.049Z,1.48
2023-03-28T15:39:00.711Z,1.50
2023-03-28T15:41:29.003Z,1.38
2023-03-28T15:44:00.470Z,1.75
2023-03-28T15:46:30.268Z,1.30
2023-03-28T15:48:59.913Z,1.30
2023-03-28T15:51:27.818Z,1.15
2023-03-28T15:53:56.003Z,1.30
2023-03-28T15:56:24.845Z,1.40
2023-03-28T15:58:52.679Z,1.40
2023-03-28T16:01:25.152Z,1.48
2023-03-28T16:03:53.357Z,1.50
2023-03-28T16:08:58.468Z,1.40
2023-03-28T16:11:27.856Z,1.33
2023-03-28T16:13:55.205Z,1.40
2023-03-28T16:16:23.898Z,1.60
2023-03-28T16:18:51.415Z,1.70
2023-03-28T16:21:19.629Z,1.80
2023-03-28T16:23:48.568Z,1.52
2023-03-28T16:26:16.248Z,1.70
2023-03-28T16:28:43.630Z,1.55
2023-03-28T16:31:13.711Z,1.55
2023-03-28T16:33:41.118Z,1.77
2023-03-28T16:36:09.092Z,1.73
2023-03-28T16:38:36.478Z,1.80
2023-03-28T16:41:05.728Z,1.88
2023-03-28T16:43:33.124Z,2.13
2023-03-28T16:46:00.831Z,2.00
2023-03-28T16:48:28.399Z,1.90
2023-03-28T16:50:56.311Z,1.43
2023-03-28T16:53:24.300Z,1.80
2023-03-28T16:55:53.161Z,1.73
2023-03-28T16:58:21.917Z,1.73
2023-03-28T17:00:49.318Z,1.40
2023-03-28T17:03:17.105Z,1.60
2023-03-28T17:05:45.310Z,2.00
2023-03-28T17:08:12.712Z,2.50
2023-03-28T17:10:40.487Z,2.30
2023-03-28T17:13:07.932Z,1.73
2023-03-28T17:15:37.079Z,2.00
2023-03-28T17:18:05.532Z,1.80
2023-03-28T17:20:33.481Z,1.93
2023-03-28T17:23:00.847Z,1.90
2023-03-28T17:25:28.296Z,1.60
2023-03-28T17:27:55.898Z,2.10
2023-03-28T17:30:23.254Z,2.30
2023-03-28T17:32:52.420Z,2.70
2023-03-28T17:35:21.413Z,2.50
2023-03-28T17:37:48.915Z,2.07
2023-03-28T17:40:16.975Z,2.07
2023-03-28T17:42:44.356Z,2.40
2023-03-28T17:45:11.970Z,2.23
2023-03-28T17:47:39.641Z,2.50
2023-03-28T17:50:09.284Z,3.27
2023-03-28T17:52:37.617Z,3.00
2023-03-28T17:55:06.196Z,2.30
2023-03-28T17:57:33.937Z,2.60
2023-03-28T18:00:02.278Z,3.17
2023-03-28T18:02:29.959Z,2.60
2023-03-28T18:04:58.030Z,2.40
2023-03-28T18:07:27.055Z,2.40
2023-03-28T18:09:55.069Z,2.80
2023-03-28T18:12:22.437Z,2.87
2023-03-28T18:14:49.854Z,3.40
2023-03-28T18:17:19.689Z,3.57
2023-03-28T18:19:47.054Z,3.10
2023-03-28T18:22:14.446Z,2.90
2023-03-28T18:24:43.155Z,2.97
2023-03-28T18:27:10.743Z,2.90
2023-03-28T18:29:38.208Z,2.80
2023-03-28T18:32:05.932Z,2.80
2023-03-28T18:34:33.324Z,2.93
2023-03-28T18:37:00.739Z,2.70
2023-03-28T18:39:29.105Z,2.47
2023-03-28T18:41:57.855Z,3.10
2023-03-28T18:44:25.249Z,2.47
2023-03-28T18:46:54.854Z,2.80
2023-03-28T18:49:22.861Z,2.70
2023-03-28T18:51:50.694Z,3.07
2023-03-28T18:54:18.250Z,2.40
2023-03-28T18:56:45.908Z,2.37
2023-03-28T18:59:14.981Z,2.37
2023-03-28T19:01:48.231Z,2.83
2023-03-28T19:04:15.926Z,2.83
2023-03-28T19:06:43.758Z,2.50
2023-03-28T19:09:11.314Z,2.33
2023-03-28T19:11:38.717Z,2.70
2023-03-28T19:14:06.248Z,2.43
2023-03-28T19:16:35.101Z,3.50
2023-03-28T19:19:03.671Z,2.77
2023-03-28T19:21:31.399Z,2.80
2023-03-28T19:23:58.857Z,2.50
2023-03-28T19:26:26.439Z,2.50
2023-03-28T19:28:54.026Z,2.30
2023-03-28T19:31:23.784Z,2.30
2023-03-28T19:33:52.744Z,2.30
2023-03-28T19:36:20.304Z,2.40
2023-03-28T19:38:47.758Z,2.43
2023-03-28T19:41:17.168Z,2.20
2023-03-28T19:43:44.614Z,2.20
2023-03-28T19:46:13.424Z,2.70
2023-03-28T19:48:41.090Z,2.30
2023-03-28T19:51:10.272Z,2.93
2023-03-28T19:53:38.171Z,2.53
2023-03-28T19:56:07.010Z,2.47
2023-03-28T19:58:34.523Z,2.47
2023-03-28T20:01:03.843Z,1.90
2023-03-28T20:03:31.597Z,2.20
2023-03-28T20:06:02.954Z,1.97
2023-03-28T20:08:31.901Z,2.33
2023-03-28T20:10:59.463Z,2.33
2023-03-28T20:13:27.218Z,1.90
2023-03-28T20:15:54.622Z,2.27
2023-03-28T20:18:22.485Z,3.00
2023-03-28T20:20:51.331Z,2.83
2023-03-28T20:23:20.174Z,2.90
2023-03-28T20:25:49.188Z,2.83
2023-03-28T20:28:16.762Z,2.67
2023-03-28T20:30:46.347Z,2.33
2023-03-28T20:33:13.879Z,2.30
2023-03-28T20:35:42.538Z,2.30
2023-03-28T20:38:09.953Z,2.10
2023-03-28T20:40:39.788Z,2.00
2023-03-28T20:43:09.911Z,1.73
2023-03-28T20:45:38.302Z,1.50
2023-03-28T20:48:09.684Z,1.43
2023-03-28T20:50:41.339Z,1.50
2023-03-28T20:53:09.084Z,1.60
2023-03-28T20:55:36.505Z,1.80
2023-03-28T20:58:03.926Z,1.97
2023-03-28T21:00:33.714Z,1.90
2023-03-28T21:03:03.313Z,1.80
2023-03-28T21:05:31.167Z,2.03
2023-03-28T21:07:59.104Z,1.70
2023-03-28T21:10:27.941Z,1.50
2023-03-28T21:12:55.311Z,1.23
2023-03-28T21:15:22.707Z,1.67
2023-03-28T21:17:53.594Z,1.40
2023-03-28T21:20:21.218Z,1.33
2023-03-28T21:22:48.613Z,1.50
2023-03-28T21:25:16.536Z,1.73
2023-03-28T21:27:43.913Z,1.53
2023-03-28T21:30:13.343Z,1.70
2023-03-28T21:32:41.292Z,1.60
2023-03-28T21:35:10.446Z,1.60
2023-03-28T21:37:37.881Z,1.77
2023-03-28T21:40:08.523Z,1.50
2023-03-28T21:42:36.012Z,1.70
2023-03-28T21:45:03.374Z,1.70
2023-03-28T21:47:30.879Z,1.73
2023-03-28T21:50:00.099Z,1.70
2023-03-28T21:52:29.150Z,1.80
2023-03-28T21:54:56.529Z,1.47
2023-03-28T21:57:23.963Z,1.63
2023-03-28T21:59:51.321Z,1.40
2023-03-28T22:02:18.761Z,1.50
2023-03-28T22:04:47.133Z,1.40
2023-03-28T22:07:14.547Z,1.37
2023-03-28T22:09:43.248Z,1.60
2023-03-28T22:12:10.614Z,1.40
2023-03-28T22:14:38.014Z,1.50
2023-03-28T22:17:05.559Z,1.40
2023-03-28T22:19:33.857Z,1.10
2023-03-28T22:22:01.855Z,1.47
2023-03-28T22:24:29.672Z,1.70
2023-03-28T22:26:58.370Z,1.40
2023-03-28T22:29:26.736Z,2.03
2023-03-28T22:31:54.077Z,1.47
2023-03-28T22:34:22.142Z,1.50
2023-03-28T22:36:50.158Z,1.40
2023-03-28T22:39:18.475Z,1.80
2023-03-28T22:41:45.893Z,1.50
2023-03-28T22:44:14.627Z,1.60
2023-03-28T22:46:42.883Z,1.30
2023-03-28T22:49:13.024Z,1.30
2023-03-28T22:51:46.096Z,1.40
2023-03-28T22:54:16.075Z,1.30
2023-03-28T22:56:45.949Z,1.40
2023-03-28T22:59:14.717Z,1.50
2023-03-28T23:01:45.379Z,1.57
2023-03-28T23:04:13.298Z,1.60
2023-03-28T23:06:41.466Z,1.40
2023-03-28T23:09:09.300Z,1.43
2023-03-28T23:11:36.731Z,1.40
2023-03-28T23:14:04.654Z,1.90
2023-03-28T23:16:33.846Z,1.40
2023-03-28T23:19:01.376Z,1.53
2023-03-28T23:21:29.191Z,1.30
2023-03-28T23:23:56.521Z,1.40
2023-03-28T23:26:23.845Z,1.43
2023-03-28T23:28:51.212Z,1.40
2023-03-28T23:31:18.603Z,1.30
2023-03-28T23:33:47.375Z,1.23
2023-03-28T23:36:15.343Z,1.60
2023-03-28T23:38:42.877Z,1.23
2023-03-28T23:41:11.110Z,1.70
2023-03-28T23:43:38.467Z,1.50
2023-03-28T23:46:06.510Z,1.60
2023-03-28T23:48:33.938Z,1.70
2023-03-28T23:51:03.057Z,2.03
2023-03-28T23:53:31.064Z,1.80
2023-03-28T23:55:58.593Z,1.60
2023-03-28T23:58:25.994Z,2.03
